Terminal Aerodrome Forecast
Issued by NWS

Home | Current Version | Previous Version | Text Only | Print | Product List | Glossary On
Versions: 1 2 3 4 5 6 7 8 9 10 11 12 13
000
FTUS45 KVEF 310500
TAFVGT
TAF
KVGT 310529Z 3106/0106 34006KT P6SM VCSH FEW030 BKN035 OVC050
     FM311700 34011G18KT P6SM SCT035 OVC050
     FM312200 02011KT P6SM SCT050 BKN080
     FM010400 34012KT P6SM SKC=

USA.gov is the U.S. government's official web portal to all federal, state and local government web resources and services.